sensor_id;sensor_type;location;lat;lon;timestamp;P1;durP1;ratioP1;P2;durP2;ratioP2
46689;SDS011;32423;45.398;10.874;2023-05-21T06:08:05;13.32;;;7.68;;
46689;SDS011;32423;45.398;10.874;2023-05-21T06:10:57;9.60;;;6.75;;
46689;SDS011;32423;45.398;10.874;2023-05-21T06:13:49;8.95;;;7.25;;
46689;SDS011;32423;45.398;10.874;2023-05-21T06:16:44;11.48;;;6.97;;
46689;SDS011;32423;45.398;10.874;2023-05-21T06:19:40;8.00;;;6.55;;
46689;SDS011;32423;45.398;10.874;2023-05-21T06:22:34;11.27;;;8.15;;
46689;SDS011;32423;45.398;10.874;2023-05-21T06:25:29;7.28;;;5.70;;
46689;SDS011;32423;45.398;10.874;2023-05-21T06:28:23;11.23;;;7.75;;
46689;SDS011;32423;45.398;10.874;2023-05-21T06:31:19;11.13;;;7.20;;
46689;SDS011;32423;45.398;10.874;2023-05-21T06:34:13;10.57;;;6.90;;
46689;SDS011;32423;45.398;10.874;2023-05-21T06:37:07;8.60;;;6.65;;
46689;SDS011;32423;45.398;10.874;2023-05-21T06:40:00;10.02;;;6.90;;
46689;SDS011;32423;45.398;10.874;2023-05-21T06:42:53;10.23;;;6.25;;
46689;SDS011;32423;45.398;10.874;2023-05-21T06:46:04;9.07;;;7.13;;
46689;SDS011;32423;45.398;10.874;2023-05-21T06:49:05;8.88;;;6.35;;
46689;SDS011;32423;45.398;10.874;2023-05-21T06:51:59;11.55;;;7.18;;
46689;SDS011;32423;45.398;10.874;2023-05-21T06:54:54;13.07;;;6.30;;
46689;SDS011;32423;45.398;10.874;2023-05-21T06:57:46;10.00;;;7.05;;
46689;SDS011;32423;45.398;10.874;2023-05-21T07:00:40;15.95;;;8.02;;
46689;SDS011;32423;45.398;10.874;2023-05-21T07:03:35;8.50;;;6.65;;
46689;SDS011;32423;45.398;10.874;2023-05-21T07:06:30;10.23;;;6.72;;
46689;SDS011;32423;45.398;10.874;2023-05-21T07:09:24;11.05;;;5.95;;
46689;SDS011;32423;45.398;10.874;2023-05-21T07:12:16;7.85;;;6.57;;
46689;SDS011;32423;45.398;10.874;2023-05-21T07:15:04;10.05;;;6.63;;
46689;SDS011;32423;45.398;10.874;2023-05-21T07:17:59;7.15;;;6.22;;
46689;SDS011;32423;45.398;10.874;2023-05-21T07:20:53;9.75;;;6.00;;
46689;SDS011;32423;45.398;10.874;2023-05-21T07:23:48;8.70;;;6.30;;
46689;SDS011;32423;45.398;10.874;2023-05-21T07:26:38;12.40;;;5.55;;
46689;SDS011;32423;45.398;10.874;2023-05-21T07:29:30;13.38;;;6.38;;
46689;SDS011;32423;45.398;10.874;2023-05-21T07:32:25;9.50;;;5.68;;
46689;SDS011;32423;45.398;10.874;2023-05-21T07:38:12;9.38;;;5.68;;
46689;SDS011;32423;45.398;10.874;2023-05-21T07:41:06;8.70;;;6.55;;
46689;SDS011;32423;45.398;10.874;2023-05-21T07:44:01;13.18;;;6.03;;
46689;SDS011;32423;45.398;10.874;2023-05-21T07:46:57;16.63;;;6.60;;
46689;SDS011;32423;45.398;10.874;2023-05-21T07:49:52;12.20;;;7.20;;
46689;SDS011;32423;45.398;10.874;2023-05-21T07:52:47;11.13;;;7.63;;
46689;SDS011;32423;45.398;10.874;2023-05-21T07:55:41;7.85;;;7.05;;
46689;SDS011;32423;45.398;10.874;2023-05-21T07:58:34;10.77;;;6.30;;
46689;SDS011;32423;45.398;10.874;2023-05-21T08:01:26;9.05;;;6.80;;
46689;SDS011;32423;45.398;10.874;2023-05-21T08:04:20;10.15;;;6.82;;
46689;SDS011;32423;45.398;10.874;2023-05-21T08:07:15;12.27;;;8.05;;
46689;SDS011;32423;45.398;10.874;2023-05-21T08:10:10;12.70;;;6.90;;
46689;SDS011;32423;45.398;10.874;2023-05-21T08:13:05;10.75;;;7.60;;
46689;SDS011;32423;45.398;10.874;2023-05-21T08:16:00;16.38;;;8.32;;
46689;SDS011;32423;45.398;10.874;2023-05-21T08:18:55;12.95;;;8.63;;
46689;SDS011;32423;45.398;10.874;2023-05-21T08:21:47;14.35;;;8.02;;
46689;SDS011;32423;45.398;10.874;2023-05-21T08:24:41;14.85;;;8.05;;
46689;SDS011;32423;45.398;10.874;2023-05-21T08:27:33;11.80;;;7.90;;
46689;SDS011;32423;45.398;10.874;2023-05-21T08:30:28;12.27;;;8.30;;
46689;SDS011;32423;45.398;10.874;2023-05-21T08:33:22;9.45;;;8.45;;
46689;SDS011;32423;45.398;10.874;2023-05-21T08:36:14;12.82;;;8.23;;
46689;SDS011;32423;45.398;10.874;2023-05-21T08:39:13;11.07;;;8.25;;
46689;SDS011;32423;45.398;10.874;2023-05-21T08:42:08;11.70;;;8.55;;
46689;SDS011;32423;45.398;10.874;2023-05-21T08:45:11;29.65;;;9.05;;
46689;SDS011;32423;45.398;10.874;2023-05-21T08:48:06;19.70;;;10.77;;
46689;SDS011;32423;45.398;10.874;2023-05-21T08:51:01;11.25;;;8.48;;
46689;SDS011;32423;45.398;10.874;2023-05-21T08:54:02;12.93;;;8.40;;
46689;SDS011;32423;45.398;10.874;2023-05-21T08:56:57;16.33;;;9.18;;
46689;SDS011;32423;45.398;10.874;2023-05-21T08:59:51;12.35;;;8.30;;
46689;SDS011;32423;45.398;10.874;2023-05-21T09:02:46;11.57;;;8.68;;
46689;SDS011;32423;45.398;10.874;2023-05-21T09:05:44;11.63;;;7.25;;
46689;SDS011;32423;45.398;10.874;2023-05-21T09:08:38;14.73;;;7.57;;
46689;SDS011;32423;45.398;10.874;2023-05-21T09:11:41;11.25;;;7.40;;
46689;SDS011;32423;45.398;10.874;2023-05-21T09:14:36;9.02;;;6.47;;
46689;SDS011;32423;45.398;10.874;2023-05-21T09:17:36;9.60;;;6.32;;
46689;SDS011;32423;45.398;10.874;2023-05-21T09:20:47;10.77;;;8.20;;
46689;SDS011;32423;45.398;10.874;2023-05-21T09:23:42;12.48;;;7.38;;
46689;SDS011;32423;45.398;10.874;2023-05-21T09:26:38;9.95;;;6.57;;
46689;SDS011;32423;45.398;10.874;2023-05-21T09:29:35;11.18;;;7.28;;
46689;SDS011;32423;45.398;10.874;2023-05-21T09:32:32;10.40;;;7.20;;
46689;SDS011;32423;45.398;10.874;2023-05-21T09:35:27;9.95;;;6.95;;
46689;SDS011;32423;45.398;10.874;2023-05-21T09:38:25;9.45;;;5.30;;
46689;SDS011;32423;45.398;10.874;2023-05-21T09:41:19;9.80;;;5.68;;
46689;SDS011;32423;45.398;10.874;2023-05-21T09:44:25;8.57;;;4.90;;
46689;SDS011;32423;45.398;10.874;2023-05-21T09:47:18;8.00;;;5.72;;
46689;SDS011;32423;45.398;10.874;2023-05-21T09:50:12;9.90;;;5.28;;
46689;SDS011;32423;45.398;10.874;2023-05-21T09:53:10;9.70;;;5.00;;
46689;SDS011;32423;45.398;10.874;2023-05-21T09:56:04;6.55;;;4.65;;
46689;SDS011;32423;45.398;10.874;2023-05-21T09:58:59;9.65;;;4.80;;
46689;SDS011;32423;45.398;10.874;2023-05-21T10:01:53;7.93;;;4.72;;
46689;SDS011;32423;45.398;10.874;2023-05-21T10:04:47;9.55;;;4.68;;
46689;SDS011;32423;45.398;10.874;2023-05-21T10:07:42;6.30;;;4.47;;
46689;SDS011;32423;45.398;10.874;2023-05-21T10:10:39;10.30;;;4.53;;
46689;SDS011;32423;45.398;10.874;2023-05-21T10:13:37;12.15;;;4.82;;
46689;SDS011;32423;45.398;10.874;2023-05-21T10:16:35;7.00;;;3.93;;
46689;SDS011;32423;45.398;10.874;2023-05-21T10:19:30;8.82;;;4.90;;
46689;SDS011;32423;45.398;10.874;2023-05-21T10:22:24;12.30;;;4.65;;
46689;SDS011;32423;45.398;10.874;2023-05-21T10:25:18;5.78;;;4.35;;
46689;SDS011;32423;45.398;10.874;2023-05-21T10:28:13;9.35;;;4.20;;
46689;SDS011;32423;45.398;10.874;2023-05-21T10:31:10;10.43;;;5.75;;
46689;SDS011;32423;45.398;10.874;2023-05-21T10:34:05;8.32;;;4.32;;
46689;SDS011;32423;45.398;10.874;2023-05-21T10:37:02;7.93;;;4.35;;
46689;SDS011;32423;45.398;10.874;2023-05-21T10:39:56;9.47;;;4.90;;
46689;SDS011;32423;45.398;10.874;2023-05-21T10:49:44;10.57;;;4.78;;
46689;SDS011;32423;45.398;10.874;2023-05-21T10:53:04;5.95;;;4.35;;
46689;SDS011;32423;45.398;10.874;2023-05-21T11:02:14;10.13;;;4.68;;
46689;SDS011;32423;45.398;10.874;2023-05-21T11:05:10;6.88;;;4.70;;
46689;SDS011;32423;45.398;10.874;2023-05-21T11:08:04;9.02;;;4.55;;
46689;SDS011;32423;45.398;10.874;2023-05-21T11:11:08;4.15;;;3.65;;
46689;SDS011;32423;45.398;10.874;2023-05-21T11:14:03;13.77;;;4.22;;
46689;SDS011;32423;45.398;10.874;2023-05-21T11:17:42;8.07;;;3.75;;
46689;SDS011;32423;45.398;10.874;2023-05-21T11:20:41;11.30;;;4.07;;
46689;SDS011;32423;45.398;10.874;2023-05-21T11:23:50;6.28;;;4.13;;
46689;SDS011;32423;45.398;10.874;2023-05-21T11:36:03;6.35;;;3.92;;
46689;SDS011;32423;45.398;10.874;2023-05-21T11:39:10;9.32;;;3.95;;
46689;SDS011;32423;45.398;10.874;2023-05-21T11:42:07;4.03;;;3.60;;
46689;SDS011;32423;45.398;10.874;2023-05-21T11:45:00;8.55;;;4.25;;
46689;SDS011;32423;45.398;10.874;2023-05-21T11:47:54;7.88;;;3.40;;
46689;SDS011;32423;45.398;10.874;2023-05-21T11:50:49;6.55;;;3.75;;
46689;SDS011;32423;45.398;10.874;2023-05-21T11:53:42;12.85;;;4.70;;
46689;SDS011;32423;45.398;10.874;2023-05-21T11:56:36;7.93;;;4.10;;
46689;SDS011;32423;45.398;10.874;2023-05-21T11:59:30;7.10;;;5.05;;
46689;SDS011;32423;45.398;10.874;2023-05-21T12:02:22;8.30;;;3.85;;
46689;SDS011;32423;45.398;10.874;2023-05-21T12:05:17;12.85;;;3.90;;
46689;SDS011;32423;45.398;10.874;2023-05-21T12:08:11;9.07;;;4.68;;
46689;SDS011;32423;45.398;10.874;2023-05-21T12:11:11;5.25;;;3.72;;
46689;SDS011;32423;45.398;10.874;2023-05-21T12:14:06;10.43;;;3.65;;
46689;SDS011;32423;45.398;10.874;2023-05-21T12:17:01;7.93;;;3.97;;
46689;SDS011;32423;45.398;10.874;2023-05-21T12:19:55;9.55;;;4.68;;
46689;SDS011;32423;45.398;10.874;2023-05-21T12:22:49;10.45;;;4.72;;
46689;SDS011;32423;45.398;10.874;2023-05-21T12:25:42;7.38;;;4.18;;
46689;SDS011;32423;45.398;10.874;2023-05-21T12:28:34;8.13;;;4.32;;
46689;SDS011;32423;45.398;10.874;2023-05-21T12:31:28;6.38;;;3.75;;
46689;SDS011;32423;45.398;10.874;2023-05-21T12:37:43;7.25;;;4.00;;
46689;SDS011;32423;45.398;10.874;2023-05-21T12:40:36;5.25;;;3.92;;
46689;SDS011;32423;45.398;10.874;2023-05-21T12:43:34;6.00;;;4.25;;
46689;SDS011;32423;45.398;10.874;2023-05-21T12:46:28;8.57;;;4.07;;
46689;SDS011;32423;45.398;10.874;2023-05-21T12:49:33;10.95;;;3.75;;
46689;SDS011;32423;45.398;10.874;2023-05-21T12:55:19;8.02;;;4.18;;
46689;SDS011;32423;45.398;10.874;2023-05-21T12:58:20;7.72;;;4.03;;
46689;SDS011;32423;45.398;10.874;2023-05-21T13:01:14;8.75;;;3.67;;
46689;SDS011;32423;45.398;10.874;2023-05-21T13:04:06;5.75;;;3.83;;
46689;SDS011;32423;45.398;10.874;2023-05-21T13:06:58;8.63;;;3.90;;
46689;SDS011;32423;45.398;10.874;2023-05-21T13:09:52;7.03;;;4.50;;
46689;SDS011;32423;45.398;10.874;2023-05-21T13:12:47;5.75;;;3.55;;
46689;SDS011;32423;45.398;10.874;2023-05-21T13:15:39;8.15;;;3.78;;
46689;SDS011;32423;45.398;10.874;2023-05-21T13:18:32;9.43;;;3.72;;
46689;SDS011;32423;45.398;10.874;2023-05-21T13:21:27;10.23;;;4.07;;
46689;SDS011;32423;45.398;10.874;2023-05-21T13:27:13;10.68;;;3.50;;
46689;SDS011;32423;45.398;10.874;2023-05-21T13:30:08;7.20;;;4.03;;
46689;SDS011;32423;45.398;10.874;2023-05-21T13:33:02;8.73;;;3.85;;
46689;SDS011;32423;45.398;10.874;2023-05-21T13:38:49;9.75;;;3.83;;
46689;SDS011;32423;45.398;10.874;2023-05-21T13:41:44;5.65;;;4.55;;
46689;SDS011;32423;45.398;10.874;2023-05-21T13:44:36;9.52;;;4.20;;
46689;SDS011;32423;45.398;10.874;2023-05-21T13:47:31;12.60;;;5.05;;
46689;SDS011;32423;45.398;10.874;2023-05-21T13:50:26;6.13;;;4.30;;
46689;SDS011;32423;45.398;10.874;2023-05-21T13:53:21;6.85;;;3.55;;
46689;SDS011;32423;45.398;10.874;2023-05-21T13:56:15;6.10;;;4.18;;
46689;SDS011;32423;45.398;10.874;2023-05-21T13:59:10;8.77;;;3.80;;
46689;SDS011;32423;45.398;10.874;2023-05-21T14:02:04;9.43;;;3.60;;
46689;SDS011;32423;45.398;10.874;2023-05-21T14:04:57;7.50;;;3.75;;
46689;SDS011;32423;45.398;10.874;2023-05-21T14:07:52;8.07;;;3.88;;
46689;SDS011;32423;45.398;10.874;2023-05-21T14:10:46;19.10;;;4.68;;
46689;SDS011;32423;45.398;10.874;2023-05-21T14:13:38;5.57;;;3.67;;
46689;SDS011;32423;45.398;10.874;2023-05-21T14:16:33;10.50;;;3.97;;
46689;SDS011;32423;45.398;10.874;2023-05-21T14:19:28;6.68;;;3.65;;
46689;SDS011;32423;45.398;10.874;2023-05-21T14:22:22;5.22;;;3.97;;
46689;SDS011;32423;45.398;10.874;2023-05-21T14:25:12;5.38;;;4.03;;
46689;SDS011;32423;45.398;10.874;2023-05-21T14:28:04;6.85;;;4.00;;
46689;SDS011;32423;45.398;10.874;2023-05-21T14:30:58;6.18;;;3.67;;
46689;SDS011;32423;45.398;10.874;2023-05-21T14:33:50;5.80;;;3.35;;
46689;SDS011;32423;45.398;10.874;2023-05-21T14:36:45;10.35;;;4.45;;
46689;SDS011;32423;45.398;10.874;2023-05-21T14:39:37;10.13;;;4.32;;
46689;SDS011;32423;45.398;10.874;2023-05-21T14:42:32;5.72;;;3.97;;
46689;SDS011;32423;45.398;10.874;2023-05-21T14:45:26;14.73;;;4.35;;
46689;SDS011;32423;45.398;10.874;2023-05-21T14:48:21;4.47;;;2.85;;
46689;SDS011;32423;45.398;10.874;2023-05-21T14:51:15;7.60;;;2.83;;
46689;SDS011;32423;45.398;10.874;2023-05-21T14:54:10;8.27;;;3.70;;
46689;SDS011;32423;45.398;10.874;2023-05-21T14:57:05;8.05;;;3.58;;
46689;SDS011;32423;45.398;10.874;2023-05-21T15:02:51;5.05;;;3.40;;
46689;SDS011;32423;45.398;10.874;2023-05-21T15:05:46;8.75;;;3.85;;
46689;SDS011;32423;45.398;10.874;2023-05-21T15:08:40;26.75;;;4.15;;
46689;SDS011;32423;45.398;10.874;2023-05-21T15:11:32;9.35;;;3.92;;
46689;SDS011;32423;45.398;10.874;2023-05-21T15:14:27;9.90;;;3.25;;
46689;SDS011;32423;45.398;10.874;2023-05-21T15:17:19;9.70;;;3.45;;
46689;SDS011;32423;45.398;10.874;2023-05-21T15:20:14;5.25;;;2.80;;
46689;SDS011;32423;45.398;10.874;2023-05-21T15:23:08;6.95;;;2.85;;
46689;SDS011;32423;45.398;10.874;2023-05-21T15:26:03;11.30;;;3.65;;
46689;SDS011;32423;45.398;10.874;2023-05-21T15:28:57;6.82;;;3.38;;
46689;SDS011;32423;45.398;10.874;2023-05-21T15:31:52;5.28;;;2.33;;
46689;SDS011;32423;45.398;10.874;2023-05-21T15:34:46;5.80;;;3.03;;
46689;SDS011;32423;45.398;10.874;2023-05-21T15:37:41;7.03;;;4.10;;
46689;SDS011;32423;45.398;10.874;2023-05-21T15:40:35;4.80;;;2.90;;
46689;SDS011;32423;45.398;10.874;2023-05-21T15:43:32;11.75;;;3.17;;
46689;SDS011;32423;45.398;10.874;2023-05-21T15:46:26;5.22;;;2.83;;
46689;SDS011;32423;45.398;10.874;2023-05-21T15:49:18;7.70;;;4.15;;
46689;SDS011;32423;45.398;10.874;2023-05-21T15:52:13;8.25;;;3.60;;
46689;SDS011;32423;45.398;10.874;2023-05-21T15:55:08;5.22;;;2.83;;
46689;SDS011;32423;45.398;10.874;2023-05-21T15:58:02;7.22;;;3.33;;
46689;SDS011;32423;45.398;10.874;2023-05-21T16:00:57;6.10;;;3.72;;
46689;SDS011;32423;45.398;10.874;2023-05-21T16:03:47;8.38;;;3.33;;
46689;SDS011;32423;45.398;10.874;2023-05-21T16:06:34;8.52;;;3.42;;
46689;SDS011;32423;45.398;10.874;2023-05-21T16:09:29;7.22;;;3.28;;
46689;SDS011;32423;45.398;10.874;2023-05-21T16:12:23;16.17;;;3.55;;
46689;SDS011;32423;45.398;10.874;2023-05-21T16:15:18;8.85;;;3.40;;
46689;SDS011;32423;45.398;10.874;2023-05-21T16:18:12;13.05;;;3.80;;
46689;SDS011;32423;45.398;10.874;2023-05-21T16:21:07;6.13;;;3.00;;
46689;SDS011;32423;45.398;10.874;2023-05-21T16:24:01;6.05;;;4.22;;
46689;SDS011;32423;45.398;10.874;2023-05-21T16:26:53;6.78;;;3.67;;
46689;SDS011;32423;45.398;10.874;2023-05-21T16:29:48;6.93;;;3.72;;
46689;SDS011;32423;45.398;10.874;2023-05-21T16:32:40;8.57;;;3.88;;
46689;SDS011;32423;45.398;10.874;2023-05-21T16:35:34;4.30;;;3.03;;
46689;SDS011;32423;45.398;10.874;2023-05-21T16:38:26;6.05;;;2.92;;
46689;SDS011;32423;45.398;10.874;2023-05-21T16:41:21;3.88;;;3.05;;
46689;SDS011;32423;45.398;10.874;2023-05-21T16:44:15;5.32;;;3.50;;
46689;SDS011;32423;45.398;10.874;2023-05-21T16:47:09;6.40;;;3.88;;
46689;SDS011;32423;45.398;10.874;2023-05-21T16:50:04;5.32;;;3.05;;
46689;SDS011;32423;45.398;10.874;2023-05-21T16:52:59;11.30;;;4.53;;
46689;SDS011;32423;45.398;10.874;2023-05-21T16:55:54;6.32;;;3.08;;
46689;SDS011;32423;45.398;10.874;2023-05-21T16:58:48;5.72;;;3.78;;
46689;SDS011;32423;45.398;10.874;2023-05-21T17:01:43;10.13;;;3.35;;
46689;SDS011;32423;45.398;10.874;2023-05-21T17:04:37;6.22;;;3.28;;
46689;SDS011;32423;45.398;10.874;2023-05-21T17:07:32;5.72;;;3.15;;
46689;SDS011;32423;45.398;10.874;2023-05-21T17:10:27;4.38;;;3.38;;
46689;SDS011;32423;45.398;10.874;2023-05-21T17:13:23;9.73;;;3.35;;
46689;SDS011;32423;45.398;10.874;2023-05-21T17:16:17;7.55;;;3.22;;
46689;SDS011;32423;45.398;10.874;2023-05-21T17:19:12;8.52;;;3.78;;
46689;SDS011;32423;45.398;10.874;2023-05-21T17:22:06;5.47;;;3.35;;
46689;SDS011;32423;45.398;10.874;2023-05-21T17:27:50;8.57;;;3.70;;
46689;SDS011;32423;45.398;10.874;2023-05-21T17:30:43;5.28;;;3.75;;
46689;SDS011;32423;45.398;10.874;2023-05-21T17:33:40;9.27;;;3.50;;
46689;SDS011;32423;45.398;10.874;2023-05-21T17:36:35;8.48;;;3.92;;
46689;SDS011;32423;45.398;10.874;2023-05-21T17:39:29;7.95;;;3.47;;
46689;SDS011;32423;45.398;10.874;2023-05-21T17:42:22;9.48;;;3.70;;
46689;SDS011;32423;45.398;10.874;2023-05-21T17:45:13;7.40;;;3.47;;
46689;SDS011;32423;45.398;10.874;2023-05-21T17:48:08;7.32;;;3.72;;
46689;SDS011;32423;45.398;10.874;2023-05-21T17:51:20;8.18;;;3.67;;
46689;SDS011;32423;45.398;10.874;2023-05-21T17:54:15;10.52;;;3.47;;
46689;SDS011;32423;45.398;10.874;2023-05-21T17:57:09;5.30;;;3.13;;
46689;SDS011;32423;45.398;10.874;2023-05-21T18:00:04;8.18;;;4.28;;
46689;SDS011;32423;45.398;10.874;2023-05-21T18:03:00;5.07;;;3.70;;
46689;SDS011;32423;45.398;10.874;2023-05-21T18:05:52;10.32;;;3.58;;
46689;SDS011;32423;45.398;10.874;2023-05-21T18:08:42;5.68;;;3.90;;
46689;SDS011;32423;45.398;10.874;2023-05-21T18:11:34;6.57;;;3.75;;
46689;SDS011;32423;45.398;10.874;2023-05-21T18:14:28;7.80;;;3.50;;
46689;SDS011;32423;45.398;10.874;2023-05-21T18:17:23;6.38;;;3.80;;
46689;SDS011;32423;45.398;10.874;2023-05-21T18:20:15;5.03;;;3.70;;
46689;SDS011;32423;45.398;10.874;2023-05-21T18:23:07;10.07;;;3.88;;
46689;SDS011;32423;45.398;10.874;2023-05-21T18:25:59;11.80;;;4.20;;
46689;SDS011;32423;45.398;10.874;2023-05-21T18:28:54;11.45;;;4.55;;
46689;SDS011;32423;45.398;10.874;2023-05-21T18:31:47;8.20;;;4.03;;
46689;SDS011;32423;45.398;10.874;2023-05-21T18:34:39;14.35;;;4.50;;
46689;SDS011;32423;45.398;10.874;2023-05-21T18:37:32;10.95;;;4.38;;
46689;SDS011;32423;45.398;10.874;2023-05-21T18:40:26;6.35;;;4.65;;
46689;SDS011;32423;45.398;10.874;2023-05-21T18:43:21;11.80;;;4.05;;
46689;SDS011;32423;45.398;10.874;2023-05-21T18:46:13;10.60;;;4.13;;
46689;SDS011;32423;45.398;10.874;2023-05-21T18:49:08;9.02;;;3.58;;
46689;SDS011;32423;45.398;10.874;2023-05-21T18:52:02;11.15;;;3.88;;
46689;SDS011;32423;45.398;10.874;2023-05-21T18:54:56;17.10;;;4.78;;
46689;SDS011;32423;45.398;10.874;2023-05-21T18:57:51;9.55;;;4.43;;
46689;SDS011;32423;45.398;10.874;2023-05-21T19:03:39;8.77;;;4.90;;
46689;SDS011;32423;45.398;10.874;2023-05-21T19:06:32;8.73;;;4.72;;
46689;SDS011;32423;45.398;10.874;2023-05-21T19:09:27;8.75;;;5.30;;
46689;SDS011;32423;45.398;10.874;2023-05-21T19:12:23;8.20;;;5.70;;
46689;SDS011;32423;45.398;10.874;2023-05-21T19:15:18;9.90;;;4.93;;
46689;SDS011;32423;45.398;10.874;2023-05-21T19:18:13;12.38;;;5.53;;
46689;SDS011;32423;45.398;10.874;2023-05-21T19:21:06;8.82;;;4.97;;
46689;SDS011;32423;45.398;10.874;2023-05-21T19:23:58;11.02;;;4.90;;
46689;SDS011;32423;45.398;10.874;2023-05-21T19:26:53;10.15;;;4.80;;
46689;SDS011;32423;45.398;10.874;2023-05-21T19:29:48;8.40;;;5.00;;
46689;SDS011;32423;45.398;10.874;2023-05-21T19:32:42;7.35;;;4.88;;
46689;SDS011;32423;45.398;10.874;2023-05-21T19:35:37;7.22;;;5.05;;
46689;SDS011;32423;45.398;10.874;2023-05-21T19:38:32;7.88;;;4.55;;
46689;SDS011;32423;45.398;10.874;2023-05-21T19:41:27;13.73;;;5.65;;
46689;SDS011;32423;45.398;10.874;2023-05-21T19:44:19;7.03;;;4.43;;
46689;SDS011;32423;45.398;10.874;2023-05-21T19:47:09;8.77;;;5.55;;
46689;SDS011;32423;45.398;10.874;2023-05-21T19:50:03;12.93;;;5.32;;
46689;SDS011;32423;45.398;10.874;2023-05-21T19:52:59;9.88;;;5.18;;
46689;SDS011;32423;45.398;10.874;2023-05-21T19:55:53;6.43;;;4.50;;
46689;SDS011;32423;45.398;10.874;2023-05-21T19:58:46;9.88;;;5.20;;
46689;SDS011;32423;45.398;10.874;2023-05-21T20:01:40;14.52;;;5.38;;
46689;SDS011;32423;45.398;10.874;2023-05-21T20:04:35;12.18;;;5.63;;
46689;SDS011;32423;45.398;10.874;2023-05-21T20:07:30;11.77;;;5.28;;
46689;SDS011;32423;45.398;10.874;2023-05-21T20:10:24;14.27;;;5.47;;
46689;SDS011;32423;45.398;10.874;2023-05-21T20:13:19;8.57;;;5.50;;
46689;SDS011;32423;45.398;10.874;2023-05-21T20:16:14;14.07;;;5.45;;
46689;SDS011;32423;45.398;10.874;2023-05-21T20:19:08;11.45;;;5.65;;
46689;SDS011;32423;45.398;10.874;2023-05-21T20:22:00;12.30;;;5.53;;
46689;SDS011;32423;45.398;10.874;2023-05-21T20:24:55;9.55;;;5.72;;
46689;SDS011;32423;45.398;10.874;2023-05-21T20:27:49;8.02;;;5.53;;
46689;SDS011;32423;45.398;10.874;2023-05-21T20:30:55;8.23;;;5.97;;
46689;SDS011;32423;45.398;10.874;2023-05-21T20:33:48;11.05;;;6.57;;
46689;SDS011;32423;45.398;10.874;2023-05-21T20:36:43;10.45;;;7.00;;
46689;SDS011;32423;45.398;10.874;2023-05-21T20:39:37;10.90;;;7.28;;
46689;SDS011;32423;45.398;10.874;2023-05-21T20:42:33;11.80;;;6.97;;
46689;SDS011;32423;45.398;10.874;2023-05-21T20:45:28;11.88;;;7.07;;
46689;SDS011;32423;45.398;10.874;2023-05-21T20:48:21;10.82;;;6.05;;
46689;SDS011;32423;45.398;10.874;2023-05-21T20:51:14;8.73;;;6.47;;
46689;SDS011;32423;45.398;10.874;2023-05-21T20:54:08;12.13;;;6.50;;
46689;SDS011;32423;45.398;10.874;2023-05-21T20:57:03;12.73;;;7.20;;
46689;SDS011;32423;45.398;10.874;2023-05-21T20:59:57;10.90;;;6.40;;
46689;SDS011;32423;45.398;10.874;2023-05-21T21:02:47;6.88;;;5.03;;
46689;SDS011;32423;45.398;10.874;2023-05-21T21:05:41;9.23;;;5.82;;
46689;SDS011;32423;45.398;10.874;2023-05-21T21:08:36;12.05;;;6.07;;
46689;SDS011;32423;45.398;10.874;2023-05-21T21:11:31;8.82;;;5.88;;
46689;SDS011;32423;45.398;10.874;2023-05-21T21:14:25;9.23;;;6.40;;
46689;SDS011;32423;45.398;10.874;2023-05-21T21:17:17;11.85;;;6.20;;
46689;SDS011;32423;45.398;10.874;2023-05-21T21:20:12;12.63;;;6.03;;
46689;SDS011;32423;45.398;10.874;2023-05-21T21:23:06;7.15;;;5.53;;
46689;SDS011;32423;45.398;10.874;2023-05-21T21:26:01;7.78;;;5.68;;
46689;SDS011;32423;45.398;10.874;2023-05-21T21:28:55;15.02;;;6.10;;
46689;SDS011;32423;45.398;10.874;2023-05-21T21:31:48;9.32;;;5.25;;
46689;SDS011;32423;45.398;10.874;2023-05-21T21:34:40;11.90;;;5.93;;
46689;SDS011;32423;45.398;10.874;2023-05-21T21:37:34;9.13;;;6.07;;
46689;SDS011;32423;45.398;10.874;2023-05-21T21:40:29;8.35;;;5.63;;
46689;SDS011;32423;45.398;10.874;2023-05-21T21:43:21;9.23;;;5.70;;
46689;SDS011;32423;45.398;10.874;2023-05-21T21:46:15;6.95;;;5.60;;
46689;SDS011;32423;45.398;10.874;2023-05-21T21:49:10;10.82;;;5.75;;
46689;SDS011;32423;45.398;10.874;2023-05-21T21:52:05;13.60;;;4.70;;
46689;SDS011;32423;45.398;10.874;2023-05-21T21:55:05;6.38;;;5.55;;
46689;SDS011;32423;45.398;10.874;2023-05-21T21:58:01;12.25;;;5.72;;
46689;SDS011;32423;45.398;10.874;2023-05-21T22:00:55;7.18;;;5.07;;
46689;SDS011;32423;45.398;10.874;2023-05-21T22:03:50;8.77;;;5.68;;
46689;SDS011;32423;45.398;10.874;2023-05-21T22:06:45;7.28;;;5.45;;
46689;SDS011;32423;45.398;10.874;2023-05-21T22:09:39;9.25;;;5.25;;
46689;SDS011;32423;45.398;10.874;2023-05-21T22:12:31;12.35;;;5.72;;
46689;SDS011;32423;45.398;10.874;2023-05-21T22:15:26;18.45;;;6.10;;
46689;SDS011;32423;45.398;10.874;2023-05-21T22:18:20;7.20;;;5.40;;
46689;SDS011;32423;45.398;10.874;2023-05-21T22:21:15;10.88;;;5.40;;
46689;SDS011;32423;45.398;10.874;2023-05-21T22:24:06;6.70;;;5.13;;
46689;SDS011;32423;45.398;10.874;2023-05-21T22:27:01;10.27;;;5.18;;
46689;SDS011;32423;45.398;10.874;2023-05-21T22:29:56;11.93;;;5.65;;
46689;SDS011;32423;45.398;10.874;2023-05-21T22:32:50;13.20;;;6.43;;
46689;SDS011;32423;45.398;10.874;2023-05-21T22:35:42;12.07;;;5.43;;
46689;SDS011;32423;45.398;10.874;2023-05-21T22:38:37;8.20;;;5.00;;
46689;SDS011;32423;45.398;10.874;2023-05-21T22:41:31;12.07;;;5.82;;
46689;SDS011;32423;45.398;10.874;2023-05-21T22:44:26;13.52;;;5.47;;
46689;SDS011;32423;45.398;10.874;2023-05-21T22:47:18;12.60;;;6.07;;
46689;SDS011;32423;45.398;10.874;2023-05-21T22:50:13;10.18;;;5.57;;
46689;SDS011;32423;45.398;10.874;2023-05-21T22:53:08;8.40;;;5.47;;
46689;SDS011;32423;45.398;10.874;2023-05-21T22:56:02;11.35;;;5.43;;
46689;SDS011;32423;45.398;10.874;2023-05-21T22:58:54;9.45;;;5.95;;
46689;SDS011;32423;45.398;10.874;2023-05-21T23:01:48;9.48;;;5.85;;
46689;SDS011;32423;45.398;10.874;2023-05-21T23:04:43;8.40;;;5.30;;
46689;SDS011;32423;45.398;10.874;2023-05-21T23:07:38;8.85;;;5.57;;
46689;SDS011;32423;45.398;10.874;2023-05-21T23:10:30;6.93;;;5.65;;
46689;SDS011;32423;45.398;10.874;2023-05-21T23:13:24;7.78;;;5.78;;
46689;SDS011;32423;45.398;10.874;2023-05-21T23:16:16;12.38;;;5.25;;
46689;SDS011;32423;45.398;10.874;2023-05-21T23:19:11;8.30;;;4.85;;
46689;SDS011;32423;45.398;10.874;2023-05-21T23:22:05;17.60;;;6.50;;
46689;SDS011;32423;45.398;10.874;2023-05-21T23:25:00;9.93;;;5.20;;
46689;SDS011;32423;45.398;10.874;2023-05-21T23:27:55;6.93;;;4.95;;
46689;SDS011;32423;45.398;10.874;2023-05-21T23:30:49;9.98;;;4.45;;
46689;SDS011;32423;45.398;10.874;2023-05-21T23:33:44;7.65;;;4.75;;
46689;SDS011;32423;45.398;10.874;2023-05-21T23:36:38;9.73;;;5.22;;
46689;SDS011;32423;45.398;10.874;2023-05-21T23:39:34;6.00;;;4.57;;
46689;SDS011;32423;45.398;10.874;2023-05-21T23:42:25;9.90;;;4.93;;
46689;SDS011;32423;45.398;10.874;2023-05-21T23:45:19;11.15;;;4.65;;
46689;SDS011;32423;45.398;10.874;2023-05-21T23:48:14;7.65;;;5.13;;
46689;SDS011;32423;45.398;10.874;2023-05-21T23:51:09;8.13;;;4.82;;
46689;SDS011;32423;45.398;10.874;2023-05-21T23:54:03;9.13;;;5.45;;
46689;SDS011;32423;45.398;10.874;2023-05-21T23:56:58;6.72;;;4.30;;
46689;SDS011;32423;45.398;10.874;2023-05-21T23:59:52;7.80;;;4.60;;
